createdAt,value
2018-07-24T00:01:48.862Z,99.10
2018-07-24T00:04:17.253Z,99.30
2018-07-24T00:06:45.652Z,99.60
2018-07-24T00:09:14.073Z,99.90
2018-07-24T00:11:43.340Z,99.90
2018-07-24T00:14:11.735Z,99.90
2018-07-24T00:16:40.892Z,99.90
2018-07-24T00:19:09.496Z,99.90
2018-07-24T00:21:37.876Z,99.90
2018-07-24T00:24:06.358Z,99.90
2018-07-24T00:26:34.720Z,99.90
2018-07-24T00:29:03.116Z,99.90
2018-07-24T00:31:32.499Z,99.90
2018-07-24T00:34:01.199Z,99.90
2018-07-24T00:36:29.550Z,99.90
2018-07-24T00:38:57.949Z,99.90
2018-07-24T00:41:26.320Z,99.90
2018-07-24T00:43:54.726Z,99.90
2018-07-24T00:46:23.892Z,99.90
2018-07-24T00:48:52.490Z,99.90
2018-07-24T00:51:21.248Z,99.90
2018-07-24T00:53:51.102Z,99.90
2018-07-24T00:56:19.591Z,99.90
2018-07-24T00:58:47.950Z,99.90
2018-07-24T01:01:16.308Z,99.90
2018-07-24T01:03:44.649Z,99.90
2018-07-24T01:06:13.019Z,99.90
2018-07-24T01:08:42.239Z,99.90
2018-07-24T01:11:11.400Z,99.90
2018-07-24T01:13:39.712Z,99.90
2018-07-24T01:16:08.088Z,99.90
2018-07-24T01:18:36.418Z,99.90
2018-07-24T01:21:04.770Z,99.90
2018-07-24T01:23:33.260Z,99.90
2018-07-24T01:26:01.830Z,99.90
2018-07-24T01:28:30.218Z,99.90
2018-07-24T01:30:58.684Z,99.90
2018-07-24T01:33:27.080Z,99.90
2018-07-24T01:35:55.428Z,99.90
2018-07-24T01:38:23.830Z,99.90
2018-07-24T01:40:52.248Z,99.90
2018-07-24T01:43:20.642Z,99.90
2018-07-24T01:45:49.008Z,99.90
2018-07-24T01:48:17.406Z,99.90
2018-07-24T01:50:45.850Z,99.90
2018-07-24T01:53:14.226Z,99.90
2018-07-24T01:55:42.662Z,99.90
2018-07-24T01:58:11.761Z,99.90
2018-07-24T02:00:40.084Z,99.90
2018-07-24T02:03:08.532Z,99.90
2018-07-24T02:05:36.926Z,99.90
2018-07-24T02:08:05.270Z,99.90
2018-07-24T02:10:33.650Z,99.90
2018-07-24T02:13:02.049Z,99.90
2018-07-24T02:15:30.430Z,99.90
2018-07-24T02:17:58.928Z,99.90
2018-07-24T02:20:27.307Z,99.90
2018-07-24T02:22:55.694Z,99.90
2018-07-24T02:25:24.187Z,99.90
2018-07-24T02:27:52.613Z,99.90
2018-07-24T02:30:20.951Z,99.90
2018-07-24T02:32:49.332Z,99.90
2018-07-24T02:35:17.701Z,99.90
2018-07-24T02:37:46.191Z,99.90
2018-07-24T02:40:14.579Z,99.90
2018-07-24T02:42:42.917Z,99.90
2018-07-24T02:45:11.283Z,99.90
2018-07-24T02:47:39.681Z,99.90
2018-07-24T02:50:08.195Z,99.90
2018-07-24T02:52:36.607Z,99.90
2018-07-24T02:55:05.040Z,99.90
2018-07-24T02:57:33.476Z,99.90
2018-07-24T03:00:01.981Z,99.90
2018-07-24T03:02:30.346Z,99.90
2018-07-24T03:04:59.473Z,99.90
2018-07-24T03:07:27.823Z,99.90
2018-07-24T03:09:57.110Z,99.90
2018-07-24T03:12:25.499Z,99.90
2018-07-24T03:14:54.623Z,99.90
2018-07-24T03:17:23.684Z,99.90
2018-07-24T03:19:52.821Z,99.90
2018-07-24T03:22:21.279Z,99.90
2018-07-24T03:24:49.647Z,99.90
2018-07-24T03:27:18.022Z,99.90
2018-07-24T03:29:46.431Z,99.90
2018-07-24T03:32:14.876Z,99.90
2018-07-24T03:34:44.057Z,99.90
2018-07-24T03:37:12.443Z,99.90
2018-07-24T03:39:40.903Z,99.90
2018-07-24T03:42:09.250Z,99.90
2018-07-24T03:44:37.601Z,99.90
2018-07-24T03:47:06.813Z,99.90
2018-07-24T03:49:35.959Z,99.90
2018-07-24T03:52:04.349Z,99.90
2018-07-24T03:54:32.697Z,99.90
2018-07-24T03:57:01.119Z,99.90
2018-07-24T03:59:29.540Z,99.90
2018-07-24T04:01:57.917Z,99.90
2018-07-24T04:04:26.295Z,99.90
2018-07-24T04:06:54.696Z,99.90
2018-07-24T04:09:23.069Z,99.90
2018-07-24T04:11:51.411Z,99.90
2018-07-24T04:14:20.573Z,99.90
2018-07-24T04:16:48.910Z,99.90
2018-07-24T04:19:17.325Z,99.90
2018-07-24T04:21:45.683Z,99.90
2018-07-24T04:24:15.049Z,99.90
2018-07-24T04:26:44.259Z,99.90
2018-07-24T04:29:13.361Z,99.90
2018-07-24T04:31:42.450Z,99.90
2018-07-24T04:34:11.588Z,99.90
2018-07-24T04:36:39.949Z,99.90
2018-07-24T04:39:08.321Z,99.90
2018-07-24T04:41:37.421Z,99.90
2018-07-24T04:44:05.801Z,99.90
2018-07-24T04:46:34.245Z,99.90
2018-07-24T04:49:02.651Z,99.90
2018-07-24T04:51:30.989Z,99.90
2018-07-24T04:53:59.354Z,99.90
2018-07-24T04:56:27.685Z,99.90
2018-07-24T04:58:56.120Z,99.90
2018-07-24T05:01:24.957Z,99.90
2018-07-24T05:03:53.389Z,99.90
2018-07-24T05:06:21.855Z,99.90
2018-07-24T05:08:50.241Z,99.90
2018-07-24T05:11:18.723Z,99.90
2018-07-24T05:13:47.131Z,99.90
2018-07-24T05:16:15.513Z,99.90
2018-07-24T05:18:44.489Z,99.90
2018-07-24T05:21:12.815Z,99.90
2018-07-24T05:23:41.222Z,99.90
2018-07-24T05:26:09.578Z,99.90
2018-07-24T05:28:37.960Z,99.90
2018-07-24T05:31:06.317Z,99.90
2018-07-24T05:33:34.769Z,99.90
2018-07-24T05:36:03.092Z,99.90
2018-07-24T05:38:31.450Z,99.90
2018-07-24T05:40:59.884Z,99.90
2018-07-24T05:43:28.277Z,99.90
2018-07-24T05:45:56.711Z,99.90
2018-07-24T05:48:25.118Z,99.90
2018-07-24T05:50:54.510Z,99.90
2018-07-24T05:53:22.969Z,99.90
2018-07-24T05:55:51.371Z,99.90
2018-07-24T05:58:19.799Z,99.90
2018-07-24T06:00:48.176Z,99.90
2018-07-24T06:03:16.572Z,99.90
2018-07-24T06:05:45.137Z,99.90
2018-07-24T06:08:13.606Z,99.90
2018-07-24T06:10:41.967Z,99.90
2018-07-24T06:13:10.423Z,99.90
2018-07-24T06:15:39.711Z,99.90
2018-07-24T06:18:08.186Z,99.90
2018-07-24T06:20:36.640Z,99.90
2018-07-24T06:23:05.790Z,99.90
2018-07-24T06:25:34.172Z,99.90
2018-07-24T06:28:02.520Z,99.90
2018-07-24T06:30:30.916Z,99.90
2018-07-24T06:32:59.240Z,99.90
2018-07-24T06:35:27.729Z,99.90
2018-07-24T06:37:56.074Z,99.90
2018-07-24T06:40:24.418Z,99.90
2018-07-24T06:42:52.799Z,99.90
2018-07-24T06:45:21.169Z,99.90
2018-07-24T06:47:50.269Z,99.90
2018-07-24T06:50:19.390Z,99.90
2018-07-24T06:52:47.770Z,99.90
2018-07-24T06:55:16.285Z,99.90
2018-07-24T06:57:44.731Z,99.90
2018-07-24T07:00:13.801Z,99.90
2018-07-24T07:02:42.997Z,99.90
2018-07-24T07:05:12.239Z,99.90
2018-07-24T07:07:40.543Z,99.90
2018-07-24T07:10:08.936Z,99.90
2018-07-24T07:12:37.270Z,99.90
2018-07-24T07:15:06.047Z,99.90
2018-07-24T07:17:34.438Z,99.90
2018-07-24T07:20:02.845Z,99.90
2018-07-24T07:22:31.302Z,99.90
2018-07-24T07:24:59.636Z,99.90
2018-07-24T07:27:28.055Z,99.90
2018-07-24T07:29:56.392Z,99.90
2018-07-24T07:32:25.525Z,99.90
2018-07-24T07:34:53.909Z,99.90
2018-07-24T07:37:22.251Z,99.70
2018-07-24T07:39:51.373Z,99.20
2018-07-24T07:42:20.383Z,99.20
2018-07-24T07:44:48.735Z,99.00
2018-07-24T07:47:17.951Z,98.30
2018-07-24T07:49:46.333Z,98.30
2018-07-24T07:52:14.697Z,98.40
2018-07-24T07:54:43.041Z,97.90
2018-07-24T07:57:11.517Z,97.00
2018-07-24T07:59:39.842Z,96.50
2018-07-24T08:02:08.166Z,96.40
2018-07-24T08:04:36.650Z,95.90
2018-07-24T08:07:04.954Z,95.10
2018-07-24T08:09:34.068Z,94.80
2018-07-24T08:12:02.409Z,94.80
2018-07-24T08:14:30.936Z,93.60
2018-07-24T08:16:59.267Z,93.80
2018-07-24T08:19:27.825Z,94.10
2018-07-24T08:21:56.178Z,93.90
2018-07-24T08:24:24.580Z,93.60
2018-07-24T08:26:53.067Z,93.40
2018-07-24T08:29:21.380Z,92.00
2018-07-24T08:31:49.765Z,92.40
2018-07-24T08:34:18.192Z,91.80
2018-07-24T08:36:46.514Z,92.20
2018-07-24T08:39:14.868Z,92.00
2018-07-24T08:41:43.178Z,91.90
2018-07-24T08:44:12.332Z,90.70
2018-07-24T08:46:40.671Z,90.90
2018-07-24T08:49:09.855Z,90.90
2018-07-24T08:51:38.146Z,90.90
2018-07-24T08:54:06.670Z,90.70
2018-07-24T08:56:34.964Z,90.10
2018-07-24T08:59:03.384Z,89.10
2018-07-24T09:01:31.916Z,89.10
2018-07-24T09:04:01.075Z,86.80
2018-07-24T09:06:29.418Z,86.80
2018-07-24T09:08:57.746Z,88.50
2018-07-24T09:11:26.095Z,89.10
2018-07-24T09:13:55.196Z,88.00
2018-07-24T09:16:23.573Z,87.80
2018-07-24T09:18:52.668Z,87.20
2018-07-24T09:21:21.008Z,87.20
2018-07-24T09:23:49.380Z,86.10
2018-07-24T09:26:17.726Z,87.30
2018-07-24T09:28:46.092Z,87.00
2018-07-24T09:31:14.500Z,87.80
2018-07-24T09:33:42.879Z,85.00
2018-07-24T09:36:11.226Z,85.00
2018-07-24T09:38:39.590Z,82.90
2018-07-24T09:41:07.936Z,83.30
2018-07-24T09:43:36.292Z,83.30
2018-07-24T09:46:04.668Z,84.20
2018-07-24T09:48:33.030Z,81.90
2018-07-24T09:51:01.402Z,83.00
2018-07-24T09:53:30.645Z,76.90
2018-07-24T09:55:59.024Z,76.80
2018-07-24T09:58:27.382Z,77.20
2018-07-24T10:00:55.745Z,78.30
2018-07-24T10:03:24.156Z,79.30
2018-07-24T10:05:52.518Z,79.90
2018-07-24T10:08:20.892Z,77.10
2018-07-24T10:10:49.212Z,77.30
2018-07-24T10:13:17.738Z,79.60
2018-07-24T10:15:45.976Z,74.90
2018-07-24T10:18:14.330Z,73.50
2018-07-24T10:20:42.689Z,74.60
2018-07-24T10:23:11.035Z,73.70
2018-07-24T10:25:40.181Z,68.40
2018-07-24T10:28:08.584Z,68.40
2018-07-24T10:30:36.920Z,67.30
2018-07-24T10:33:05.280Z,70.80
2018-07-24T10:35:34.568Z,71.90
2018-07-24T10:38:02.896Z,71.80
2018-07-24T10:40:31.253Z,70.70
2018-07-24T10:42:59.779Z,68.90
2018-07-24T10:45:28.868Z,70.10
2018-07-24T10:47:57.990Z,70.00
2018-07-24T10:50:26.787Z,69.00
2018-07-24T10:52:55.308Z,67.50
2018-07-24T10:55:23.844Z,61.70
2018-07-24T10:57:52.237Z,65.20
2018-07-24T11:00:20.566Z,63.60
2018-07-24T11:02:49.046Z,62.40
2018-07-24T11:05:17.451Z,65.80
2018-07-24T11:07:46.519Z,65.60
2018-07-24T11:10:14.904Z,65.60
2018-07-24T11:12:43.276Z,66.50
2018-07-24T11:15:11.654Z,60.80
2018-07-24T11:17:40.026Z,61.60
2018-07-24T11:20:08.402Z,63.10
2018-07-24T11:22:36.915Z,58.60
2018-07-24T11:25:05.992Z,59.10
2018-07-24T11:27:34.326Z,59.10
2018-07-24T11:30:03.432Z,59.70
2018-07-24T11:32:31.823Z,59.60
2018-07-24T11:35:00.159Z,58.70
2018-07-24T11:37:28.589Z,61.20
2018-07-24T11:39:57.297Z,58.60
2018-07-24T11:42:25.615Z,59.20
2018-07-24T11:44:54.290Z,55.90
2018-07-24T11:47:22.661Z,55.30
2018-07-24T11:49:51.285Z,56.00
2018-07-24T11:52:19.627Z,55.80
2018-07-24T11:54:48.083Z,54.90
2018-07-24T11:57:16.547Z,55.30
2018-07-24T11:59:44.904Z,58.00
2018-07-24T12:02:14.471Z,56.50
2018-07-24T12:04:42.961Z,56.40
2018-07-24T12:07:11.293Z,55.30
2018-07-24T12:09:39.667Z,55.40
2018-07-24T12:12:08.036Z,53.20
2018-07-24T12:14:37.555Z,53.40
2018-07-24T12:17:06.050Z,55.10
2018-07-24T12:19:35.001Z,54.40
2018-07-24T12:22:03.310Z,53.50
2018-07-24T12:24:32.413Z,52.50
2018-07-24T12:27:00.794Z,52.20
2018-07-24T12:29:30.099Z,50.90
2018-07-24T12:31:58.459Z,52.50
2018-07-24T12:34:27.048Z,56.40
2018-07-24T12:36:55.732Z,53.20
2018-07-24T12:39:24.208Z,51.90
2018-07-24T12:41:52.557Z,52.40
2018-07-24T12:44:21.073Z,51.30
2018-07-24T12:46:49.565Z,51.50
2018-07-24T12:49:18.089Z,50.30
2018-07-24T12:51:46.413Z,51.20
2018-07-24T12:54:14.786Z,51.50
2018-07-24T12:56:43.126Z,52.00
2018-07-24T12:59:11.918Z,51.30
2018-07-24T13:01:40.243Z,51.60
2018-07-24T13:04:08.683Z,50.20
2018-07-24T13:06:36.929Z,49.20
2018-07-24T13:09:05.277Z,48.70
2018-07-24T13:11:33.863Z,50.80
2018-07-24T13:14:02.478Z,50.90
2018-07-24T13:16:30.847Z,51.60
2018-07-24T13:18:59.205Z,47.80
2018-07-24T13:21:27.602Z,47.50
2018-07-24T13:24:00.259Z,47.70
2018-07-24T13:26:28.646Z,49.80
2018-07-24T13:28:57.068Z,50.50
2018-07-24T13:31:25.702Z,50.20
2018-07-24T13:33:54.189Z,50.10
2018-07-24T13:36:22.972Z,50.80
2018-07-24T13:38:51.572Z,48.70
2018-07-24T13:41:19.964Z,48.30
2018-07-24T13:43:48.317Z,48.50
2018-07-24T13:46:16.790Z,49.40
2018-07-24T13:48:45.526Z,49.40
2018-07-24T13:51:14.481Z,49.80
2018-07-24T13:53:42.910Z,49.20
2018-07-24T13:56:11.239Z,48.40
2018-07-24T13:58:39.607Z,49.50
2018-07-24T14:01:08.090Z,49.20
2018-07-24T14:03:36.447Z,49.10
2018-07-24T14:06:04.824Z,47.80
2018-07-24T14:08:34.644Z,49.50
2018-07-24T14:11:02.984Z,48.80
2018-07-24T14:13:31.370Z,49.90
2018-07-24T14:15:59.812Z,47.40
2018-07-24T14:18:28.206Z,47.50
2018-07-24T14:20:56.534Z,47.80
2018-07-24T14:23:24.891Z,46.90
2018-07-24T14:25:53.230Z,48.20
2018-07-24T14:28:21.620Z,48.30
2018-07-24T14:30:49.958Z,48.80
2018-07-24T14:33:19.423Z,49.00
2018-07-24T14:35:47.809Z,49.70
2018-07-24T14:38:16.510Z,49.10
2018-07-24T14:40:44.852Z,48.80
2018-07-24T14:43:13.521Z,47.80
2018-07-24T14:45:42.949Z,47.50
2018-07-24T14:48:12.203Z,47.50
2018-07-24T14:50:41.551Z,48.40
2018-07-24T14:53:09.880Z,48.40
2018-07-24T14:55:39.137Z,46.00
2018-07-24T14:58:07.581Z,46.00
2018-07-24T15:00:35.977Z,47.20
2018-07-24T15:03:04.315Z,47.20
2018-07-24T15:05:34.015Z,47.50
2018-07-24T15:08:02.341Z,48.20
2018-07-24T15:10:30.715Z,46.50
2018-07-24T15:12:59.095Z,48.40
2018-07-24T15:15:27.539Z,49.20
2018-07-24T15:17:55.868Z,48.90
2018-07-24T15:20:24.645Z,51.50
2018-07-24T15:22:52.985Z,49.50
2018-07-24T15:25:21.370Z,49.30
2018-07-24T15:27:50.495Z,50.60
2018-07-24T15:30:18.844Z,50.50
2018-07-24T15:32:47.973Z,51.40
2018-07-24T15:35:16.364Z,50.90
2018-07-24T15:37:44.693Z,49.60
2018-07-24T15:40:13.793Z,51.70
2018-07-24T15:42:42.922Z,50.30
2018-07-24T15:45:12.036Z,49.00
2018-07-24T15:47:40.408Z,49.00
2018-07-24T15:50:09.489Z,49.20
2018-07-24T15:52:37.885Z,49.90
2018-07-24T15:55:06.264Z,48.40
2018-07-24T15:57:34.633Z,49.60
2018-07-24T16:00:04.614Z,50.10
2018-07-24T16:02:33.782Z,50.80
2018-07-24T16:05:02.864Z,51.00
2018-07-24T16:07:31.195Z,51.00
2018-07-24T16:10:00.308Z,49.10
2018-07-24T16:12:28.722Z,49.00
2018-07-24T16:14:57.505Z,50.70
2018-07-24T16:17:25.856Z,52.40
2018-07-24T16:19:54.573Z,49.50
2018-07-24T16:22:23.058Z,51.40
2018-07-24T16:24:52.338Z,51.20
2018-07-24T16:27:20.701Z,52.80
2018-07-24T16:29:49.905Z,50.90
2018-07-24T16:32:19.139Z,50.80
2018-07-24T16:34:47.488Z,49.70
2018-07-24T16:37:15.906Z,48.90
2018-07-24T16:39:44.260Z,48.60
2018-07-24T16:42:12.625Z,48.30
2018-07-24T16:44:40.998Z,48.30
2018-07-24T16:47:09.313Z,46.50
2018-07-24T16:49:37.780Z,44.90
2018-07-24T16:52:06.134Z,46.50
2018-07-24T16:54:35.468Z,45.20
2018-07-24T16:57:03.831Z,44.70
2018-07-24T16:59:32.419Z,45.30
2018-07-24T17:02:00.748Z,43.50
2018-07-24T17:04:29.175Z,43.10
2018-07-24T17:06:57.503Z,42.20
2018-07-24T17:09:25.841Z,43.20
2018-07-24T17:11:54.197Z,45.30
2018-07-24T17:14:22.586Z,43.90
2018-07-24T17:16:50.962Z,44.80
2018-07-24T17:19:19.322Z,45.20
2018-07-24T17:21:48.433Z,45.00
2018-07-24T17:24:16.774Z,45.00
2018-07-24T17:26:45.138Z,44.00
2018-07-24T17:29:13.495Z,44.60
2018-07-24T17:31:41.862Z,45.20
2018-07-24T17:34:10.197Z,46.60
2018-07-24T17:36:39.289Z,50.00
2018-07-24T17:39:08.461Z,51.10
2018-07-24T17:41:36.832Z,52.40
2018-07-24T17:44:05.195Z,52.20
2018-07-24T17:46:33.567Z,52.30
2018-07-24T17:49:01.950Z,52.30
2018-07-24T17:51:30.325Z,52.10
2018-07-24T17:53:58.686Z,54.00
2018-07-24T17:56:27.010Z,53.60
2018-07-24T17:58:55.463Z,52.90
2018-07-24T18:01:23.957Z,53.60
2018-07-24T18:03:53.053Z,54.30
2018-07-24T18:06:21.371Z,54.60
2018-07-24T18:08:50.494Z,56.60
2018-07-24T18:11:18.897Z,56.30
2018-07-24T18:13:47.695Z,56.70
2018-07-24T18:16:16.092Z,56.60
2018-07-24T18:18:44.442Z,57.50
2018-07-24T18:21:12.861Z,59.20
2018-07-24T18:23:41.211Z,59.00
2018-07-24T18:26:09.589Z,58.40
2018-07-24T18:28:39.121Z,58.30
2018-07-24T18:31:07.567Z,57.70
2018-07-24T18:33:35.983Z,57.70
2018-07-24T18:36:04.430Z,57.40
2018-07-24T18:38:32.950Z,57.40
2018-07-24T18:41:01.437Z,57.40
2018-07-24T18:43:29.905Z,58.40
2018-07-24T18:45:58.640Z,59.30
2018-07-24T18:48:26.995Z,59.50
2018-07-24T18:50:55.656Z,60.80
2018-07-24T18:53:24.092Z,60.80
2018-07-24T18:55:52.383Z,61.40
2018-07-24T18:58:20.783Z,63.10
2018-07-24T19:00:49.288Z,62.30
2018-07-24T19:03:17.638Z,63.50
2018-07-24T19:05:46.086Z,63.80
2018-07-24T19:08:15.254Z,66.30
2018-07-24T19:10:43.603Z,66.30
2018-07-24T19:13:11.969Z,66.20
2018-07-24T19:15:40.332Z,67.20
2018-07-24T19:18:09.489Z,69.00
2018-07-24T19:20:37.786Z,69.90
2018-07-24T19:23:06.149Z,70.20
2018-07-24T19:25:34.570Z,70.50
2018-07-24T19:28:04.180Z,70.90
2018-07-24T19:30:32.654Z,71.20
2018-07-24T19:33:01.114Z,71.30
2018-07-24T19:35:30.236Z,72.10
2018-07-24T19:37:58.686Z,72.10
2018-07-24T19:40:27.017Z,72.30
2018-07-24T19:42:55.439Z,72.60
2018-07-24T19:45:24.329Z,72.90
2018-07-24T19:47:52.721Z,72.30
2018-07-24T19:50:21.568Z,72.40
2018-07-24T19:52:49.943Z,72.90
2018-07-24T19:55:18.728Z,74.00
2018-07-24T19:57:47.170Z,74.90
2018-07-24T20:00:15.654Z,76.30
2018-07-24T20:02:44.147Z,76.60
2018-07-24T20:05:12.653Z,76.90
2018-07-24T20:07:41.128Z,77.90
2018-07-24T20:10:09.657Z,78.50
2018-07-24T20:12:38.054Z,78.10
2018-07-24T20:15:06.544Z,78.00
2018-07-24T20:17:34.900Z,78.90
2018-07-24T20:20:05.085Z,78.60
2018-07-24T20:22:33.585Z,78.50
2018-07-24T20:25:02.250Z,78.60
2018-07-24T20:27:30.732Z,78.50
2018-07-24T20:29:59.254Z,80.00
2018-07-24T20:32:28.625Z,79.50
2018-07-24T20:34:57.168Z,79.80
2018-07-24T20:37:25.511Z,80.40
2018-07-24T20:39:54.171Z,80.60
2018-07-24T20:42:22.605Z,80.80
2018-07-24T20:44:51.158Z,81.00
2018-07-24T20:47:19.509Z,81.00
2018-07-24T20:49:47.877Z,81.30
2018-07-24T20:52:16.938Z,81.70
2018-07-24T20:54:45.292Z,81.60
2018-07-24T20:57:14.138Z,81.80
2018-07-24T20:59:42.491Z,82.30
2018-07-24T21:02:11.060Z,82.60
2018-07-24T21:04:39.692Z,82.70
2018-07-24T21:07:08.075Z,82.70
2018-07-24T21:09:36.524Z,82.30
2018-07-24T21:12:05.619Z,83.00
2018-07-24T21:14:33.989Z,83.10
2018-07-24T21:17:02.497Z,83.00
2018-07-24T21:19:30.845Z,83.40
2018-07-24T21:22:00.075Z,83.50
2018-07-24T21:24:28.431Z,83.40
2018-07-24T21:26:57.526Z,83.80
2018-07-24T21:29:25.944Z,83.80
2018-07-24T21:31:54.383Z,84.40
2018-07-24T21:34:22.731Z,84.00
2018-07-24T21:36:51.128Z,83.10
2018-07-24T21:39:20.240Z,85.10
2018-07-24T21:41:49.363Z,84.80
2018-07-24T21:44:17.756Z,84.70
2018-07-24T21:46:46.192Z,83.60
2018-07-24T21:49:15.381Z,85.20
2018-07-24T21:51:43.898Z,85.30
2018-07-24T21:54:13.565Z,85.30
2018-07-24T21:56:41.921Z,86.20
2018-07-24T21:59:10.258Z,85.20
2018-07-24T22:01:38.675Z,85.50
2018-07-24T22:04:07.284Z,85.20
2018-07-24T22:06:35.829Z,85.40
2018-07-24T22:09:04.261Z,86.40
2018-07-24T22:11:32.578Z,86.80
2018-07-24T22:14:00.960Z,86.70
2018-07-24T22:16:29.330Z,87.80
2018-07-24T22:18:57.740Z,87.20
2018-07-24T22:21:26.111Z,86.90
2018-07-24T22:23:54.544Z,86.70
2018-07-24T22:26:23.453Z,86.40
2018-07-24T22:28:51.802Z,85.80
2018-07-24T22:31:20.170Z,85.90
2018-07-24T22:33:48.652Z,87.80
2018-07-24T22:36:17.148Z,88.10
2018-07-24T22:38:46.258Z,88.60
2018-07-24T22:41:14.702Z,87.60
2018-07-24T22:43:43.180Z,86.90
2018-07-24T22:46:13.214Z,88.40
2018-07-24T22:48:42.500Z,89.40
2018-07-24T22:51:11.085Z,88.40
2018-07-24T22:53:39.664Z,88.20
2018-07-24T22:56:08.814Z,88.80
2018-07-24T22:58:38.208Z,88.00
2018-07-24T23:01:07.141Z,88.00
2018-07-24T23:03:35.554Z,88.00
2018-07-24T23:06:03.927Z,89.00
2018-07-24T23:08:32.399Z,89.50
2018-07-24T23:11:00.861Z,89.20
2018-07-24T23:13:29.368Z,89.00
2018-07-24T23:15:57.839Z,89.70
2018-07-24T23:18:26.307Z,90.20
2018-07-24T23:20:55.001Z,90.10
2018-07-24T23:23:23.534Z,90.00
2018-07-24T23:25:52.028Z,90.10
2018-07-24T23:28:21.353Z,90.00
2018-07-24T23:30:49.844Z,90.00
2018-07-24T23:33:18.241Z,89.70
2018-07-24T23:35:46.696Z,90.10
2018-07-24T23:38:16.099Z,90.30
2018-07-24T23:40:44.664Z,90.40
2018-07-24T23:43:13.530Z,90.40
2018-07-24T23:45:41.923Z,90.40
2018-07-24T23:48:10.431Z,90.40
2018-07-24T23:50:38.815Z,90.40
2018-07-24T23:53:07.522Z,90.50
2018-07-24T23:55:36.091Z,90.30
2018-07-24T23:58:04.704Z,90.40
